Time;durP1;ratioP1;P1;durP2;ratioP2;P2;SDS_P1;SDS_P2;PMS_P1;PMS_P2;Temp;Humidity;BMP_temperature;BMP_pressure;BME280_temperature;BME280_humidity;BME280_pressure;Samples;Min_cycle;Max_cycle;Signal;HPM_P1;HPM_P2
2024/01/18 00:01:32;;;;;;;42.90;22.30;;;;;;;;;;5073784;28;20049;-65
2024/01/18 00:04:00;;;;;;;45.77;22.87;;;;;;;;;;5070972;28;20755;-64
2024/01/18 00:06:26;;;;;;;44.03;22.80;;;;;;;;;;5068632;28;20674;-64
2024/01/18 00:08:51;;;;;;;57.40;24.20;;;;;;;;;;5065571;28;20036;-64
2024/01/18 00:11:19;;;;;;;55.77;26.13;;;;;;;;;;5070695;28;20028;-65
2024/01/18 00:13:44;;;;;;;51.37;23.80;;;;;;;;;;5073255;28;20493;-65
2024/01/18 00:16:10;;;;;;;47.67;21.73;;;;;;;;;;5073258;28;20031;-64
2024/01/18 00:18:35;;;;;;;49.03;22.60;;;;;;;;;;5074150;28;20074;-65
2024/01/18 00:21:00;;;;;;;47.90;24.00;;;;;;;;;;5082245;28;20400;-64
2024/01/18 00:23:26;;;;;;;44.20;22.77;;;;;;;;;;5072814;28;20078;-65
2024/01/18 00:25:51;;;;;;;48.03;23.27;;;;;;;;;;5074298;28;20028;-65
2024/01/18 00:28:16;;;;;;;49.50;23.83;;;;;;;;;;5074356;28;20377;-65
2024/01/18 00:30:42;;;;;;;43.83;23.17;;;;;;;;;;5080755;28;20028;-64
2024/01/18 00:33:07;;;;;;;43.57;22.97;;;;;;;;;;5075786;28;20036;-64
2024/01/18 00:35:32;;;;;;;44.60;22.93;;;;;;;;;;5073250;28;20089;-64
2024/01/18 00:37:58;;;;;;;49.30;23.20;;;;;;;;;;5076765;28;20031;-64
2024/01/18 00:40:23;;;;;;;52.10;22.90;;;;;;;;;;5077025;28;20056;-65
2024/01/18 00:42:48;;;;;;;49.03;23.27;;;;;;;;;;5070066;28;20025;-65
2024/01/18 00:45:13;;;;;;;45.80;23.03;;;;;;;;;;5072130;28;20025;-64
2024/01/18 00:47:39;;;;;;;50.63;23.77;;;;;;;;;;5078180;28;20027;-65
2024/01/18 00:50:04;;;;;;;57.07;25.83;;;;;;;;;;5078103;28;20082;-64
2024/01/18 00:52:30;;;;;;;48.90;23.30;;;;;;;;;;5072461;28;20047;-64
2024/01/18 00:54:55;;;;;;;45.40;23.03;;;;;;;;;;5077719;28;20497;-64
2024/01/18 00:57:20;;;;;;;44.07;22.80;;;;;;;;;;5068077;28;20385;-63
2024/01/18 00:59:45;;;;;;;45.93;22.53;;;;;;;;;;5070952;28;20021;-64
2024/01/18 01:02:11;;;;;;;47.43;23.07;;;;;;;;;;5069417;28;20052;-64
2024/01/18 01:04:36;;;;;;;47.33;23.97;;;;;;;;;;5070074;28;20036;-64
2024/01/18 01:07:02;;;;;;;50.97;23.50;;;;;;;;;;5079871;28;20036;-64
2024/01/18 01:09:28;;;;;;;49.63;24.53;;;;;;;;;;5076017;28;20032;-65
2024/01/18 01:11:54;;;;;;;44.03;22.90;;;;;;;;;;5070953;28;20036;-65
2024/01/18 01:14:19;;;;;;;45.87;23.83;;;;;;;;;;5072813;28;20036;-65
2024/01/18 01:16:44;;;;;;;54.67;23.90;;;;;;;;;;5070931;28;20020;-64
2024/01/18 01:19:09;;;;;;;47.70;23.17;;;;;;;;;;5076889;28;20074;-64
2024/01/18 01:21:35;;;;;;;52.00;24.07;;;;;;;;;;5077570;28;20030;-65
2024/01/18 01:24:00;;;;;;;48.73;24.80;;;;;;;;;;5064855;28;20082;-64
2024/01/18 01:26:25;;;;;;;51.17;24.67;;;;;;;;;;5066400;28;20845;-64
2024/01/18 01:28:51;;;;;;;49.43;24.57;;;;;;;;;;5075451;28;20024;-65
2024/01/18 01:31:16;;;;;;;45.50;23.70;;;;;;;;;;5075464;28;20103;-64
2024/01/18 01:33:44;;;;;;;48.87;23.87;;;;;;;;;;5074482;28;20033;-64
2024/01/18 01:36:10;;;;;;;50.20;24.67;;;;;;;;;;5072669;28;20429;-66
2024/01/18 01:38:35;;;;;;;51.63;24.37;;;;;;;;;;5078776;28;20269;-65
2024/01/18 01:41:02;;;;;;;53.77;24.67;;;;;;;;;;5080380;28;20039;-64
2024/01/18 01:43:27;;;;;;;56.97;25.23;;;;;;;;;;5071545;28;20110;-65
2024/01/18 01:45:53;;;;;;;49.93;24.57;;;;;;;;;;5074653;28;20357;-64
2024/01/18 01:48:18;;;;;;;48.97;24.67;;;;;;;;;;5081953;28;20025;-64
2024/01/18 01:50:44;;;;;;;57.57;24.87;;;;;;;;;;5078105;28;20119;-65
2024/01/18 01:53:09;;;;;;;50.80;25.10;;;;;;;;;;5076691;28;20032;-64
2024/01/18 01:55:35;;;;;;;50.17;25.30;;;;;;;;;;5079664;28;20028;-64
2024/01/18 01:58:00;;;;;;;51.70;25.70;;;;;;;;;;5076704;28;20358;-65
2024/01/18 02:00:26;;;;;;;52.70;25.33;;;;;;;;;;5073880;28;20485;-64
2024/01/18 02:02:52;;;;;;;58.37;24.20;;;;;;;;;;5081334;28;20040;-64
2024/01/18 02:05:18;;;;;;;56.93;25.40;;;;;;;;;;5077227;28;20040;-64
2024/01/18 02:07:43;;;;;;;55.67;25.03;;;;;;;;;;5083125;28;20461;-64
2024/01/18 02:10:09;;;;;;;55.90;25.57;;;;;;;;;;5074143;28;20274;-65
2024/01/18 02:12:34;;;;;;;54.73;25.27;;;;;;;;;;5072683;28;20484;-64
2024/01/18 02:15:00;;;;;;;59.07;26.50;;;;;;;;;;5079287;28;20300;-65
2024/01/18 02:17:25;;;;;;;57.80;24.93;;;;;;;;;;5078771;28;20058;-65
2024/01/18 02:19:50;;;;;;;58.33;26.90;;;;;;;;;;5075791;28;20039;-65
2024/01/18 02:22:16;;;;;;;53.43;25.63;;;;;;;;;;5072577;28;20036;-64
2024/01/18 02:24:45;;;;;;;57.83;25.77;;;;;;;;;;5062907;28;20031;-64
2024/01/18 02:27:11;;;;;;;53.37;26.33;;;;;;;;;;5078700;28;20024;-65
2024/01/18 02:29:36;;;;;;;58.47;26.40;;;;;;;;;;5085738;28;20328;-64
2024/01/18 02:32:02;;;;;;;52.03;26.03;;;;;;;;;;5076977;28;20444;-65
2024/01/18 02:34:27;;;;;;;54.77;25.87;;;;;;;;;;5066516;28;20025;-64
2024/01/18 02:36:52;;;;;;;56.83;23.87;;;;;;;;;;5074037;28;20481;-64
2024/01/18 02:39:18;;;;;;;53.93;25.63;;;;;;;;;;5075539;28;20028;-64
2024/01/18 02:41:43;;;;;;;52.27;24.40;;;;;;;;;;5075364;28;20036;-65
2024/01/18 02:44:08;;;;;;;58.20;25.50;;;;;;;;;;5068999;28;20028;-65
2024/01/18 02:46:34;;;;;;;51.43;24.70;;;;;;;;;;5081128;28;20100;-65
2024/01/18 02:48:59;;;;;;;50.17;25.63;;;;;;;;;;5081114;28;20158;-64
2024/01/18 02:51:25;;;;;;;60.93;28.60;;;;;;;;;;5077357;28;20036;-64
2024/01/18 02:53:50;;;;;;;53.87;26.97;;;;;;;;;;5073857;28;20020;-64
2024/01/18 02:56:15;;;;;;;54.50;26.07;;;;;;;;;;5074589;28;20028;-64
2024/01/18 02:58:41;;;;;;;56.83;27.60;;;;;;;;;;5073841;28;20028;-64
2024/01/18 03:01:06;;;;;;;59.77;26.63;;;;;;;;;;5070391;28;20117;-64
2024/01/18 03:03:34;;;;;;;56.03;27.17;;;;;;;;;;5074705;28;20052;-64
2024/01/18 03:06:00;;;;;;;60.17;27.53;;;;;;;;;;5080689;28;20103;-64
2024/01/18 03:08:25;;;;;;;60.70;27.27;;;;;;;;;;5078454;28;20275;-64
2024/01/18 03:10:50;;;;;;;58.27;26.93;;;;;;;;;;5074608;28;20456;-64
2024/01/18 03:13:16;;;;;;;67.07;27.83;;;;;;;;;;5082764;28;20032;-65
2024/01/18 03:15:41;;;;;;;64.40;28.37;;;;;;;;;;5081917;28;20051;-65
2024/01/18 03:18:06;;;;;;;64.33;27.50;;;;;;;;;;5076347;28;20028;-64
2024/01/18 03:20:32;;;;;;;59.07;27.53;;;;;;;;;;5075294;28;20023;-64
2024/01/18 03:22:57;;;;;;;61.43;28.00;;;;;;;;;;5081677;28;20028;-67
2024/01/18 03:25:22;;;;;;;63.20;28.93;;;;;;;;;;5076887;28;20020;-64
2024/01/18 03:27:47;;;;;;;70.97;29.73;;;;;;;;;;5075355;28;20753;-65
2024/01/18 03:30:13;;;;;;;67.70;28.63;;;;;;;;;;5072893;28;20112;-64
2024/01/18 03:32:38;;;;;;;72.43;30.40;;;;;;;;;;5067825;28;20029;-64
2024/01/18 03:35:04;;;;;;;63.00;26.73;;;;;;;;;;5076395;28;20249;-64
2024/01/18 03:37:29;;;;;;;65.73;29.73;;;;;;;;;;5073674;28;20504;-64
2024/01/18 03:39:55;;;;;;;72.00;29.67;;;;;;;;;;5070861;28;20024;-64
2024/01/18 03:42:20;;;;;;;64.67;28.80;;;;;;;;;;5070060;28;20025;-63
2024/01/18 03:44:45;;;;;;;72.70;30.30;;;;;;;;;;5075257;28;20029;-64
2024/01/18 03:47:11;;;;;;;68.87;30.33;;;;;;;;;;5078566;28;20032;-63
2024/01/18 03:49:36;;;;;;;77.73;31.60;;;;;;;;;;5069430;28;20029;-64
2024/01/18 03:52:01;;;;;;;69.83;31.73;;;;;;;;;;5072392;28;20040;-64
2024/01/18 03:54:27;;;;;;;79.13;31.33;;;;;;;;;;5076598;28;20028;-64
2024/01/18 03:56:52;;;;;;;73.53;28.83;;;;;;;;;;5072412;28;20024;-63
2024/01/18 03:59:20;;;;;;;72.93;30.57;;;;;;;;;;5076683;28;20454;-64
2024/01/18 04:01:45;;;;;;;69.43;30.57;;;;;;;;;;5075469;28;20064;-65
2024/01/18 04:04:10;;;;;;;75.10;31.17;;;;;;;;;;5075422;28;20329;-64
2024/01/18 04:06:35;;;;;;;69.83;28.93;;;;;;;;;;5076669;28;20024;-64
2024/01/18 04:09:01;;;;;;;73.13;30.00;;;;;;;;;;5079074;28;20373;-64
2024/01/18 04:11:26;;;;;;;83.60;33.70;;;;;;;;;;5074686;28;20052;-64
2024/01/18 04:13:51;;;;;;;68.57;31.00;;;;;;;;;;5077687;28;20037;-66
2024/01/18 04:16:17;;;;;;;76.50;30.70;;;;;;;;;;5075745;28;20028;-65
2024/01/18 04:18:42;;;;;;;76.33;31.40;;;;;;;;;;5074326;28;20028;-64
2024/01/18 04:21:07;;;;;;;77.90;31.70;;;;;;;;;;5072317;28;20531;-64
2024/01/18 04:23:33;;;;;;;76.50;31.03;;;;;;;;;;5077918;28;20046;-64
2024/01/18 04:25:58;;;;;;;76.90;31.23;;;;;;;;;;5074445;28;20043;-64
2024/01/18 04:28:23;;;;;;;80.10;32.73;;;;;;;;;;5071841;28;20035;-64
2024/01/18 04:30:48;;;;;;;82.13;32.47;;;;;;;;;;5068170;28;20519;-64
2024/01/18 04:33:14;;;;;;;82.20;33.77;;;;;;;;;;5075711;28;20029;-65
2024/01/18 04:35:39;;;;;;;78.67;33.07;;;;;;;;;;5075726;28;20051;-64
2024/01/18 04:38:05;;;;;;;89.17;33.63;;;;;;;;;;5068198;28;20029;-64
2024/01/18 04:40:31;;;;;;;90.43;35.27;;;;;;;;;;5069630;28;20025;-63
2024/01/18 04:42:56;;;;;;;83.10;34.83;;;;;;;;;;5078346;28;20290;-64
2024/01/18 04:45:22;;;;;;;90.20;35.43;;;;;;;;;;5073105;28;20103;-64
2024/01/18 04:47:47;;;;;;;92.77;35.73;;;;;;;;;;5069481;28;20110;-64
2024/01/18 04:50:12;;;;;;;79.53;34.27;;;;;;;;;;5069665;28;20440;-64
2024/01/18 04:52:37;;;;;;;91.30;36.10;;;;;;;;;;5070842;28;20047;-64
2024/01/18 04:55:04;;;;;;;87.80;34.07;;;;;;;;;;5076619;28;20118;-64
2024/01/18 04:57:33;;;;;;;84.00;32.53;;;;;;;;;;5068095;28;20059;-64
2024/01/18 04:59:58;;;;;;;82.53;30.97;;;;;;;;;;5073506;28;20285;-64
2024/01/18 05:02:23;;;;;;;99.43;36.33;;;;;;;;;;5067866;28;20776;-64
2024/01/18 05:04:48;;;;;;;79.77;34.00;;;;;;;;;;5074518;28;20384;-64
2024/01/18 05:07:14;;;;;;;90.20;34.50;;;;;;;;;;5077680;28;20145;-64
2024/01/18 05:09:39;;;;;;;92.17;34.70;;;;;;;;;;5072349;28;20534;-65
2024/01/18 05:12:04;;;;;;;84.03;32.97;;;;;;;;;;5071516;28;20031;-64
2024/01/18 05:14:30;;;;;;;87.80;34.83;;;;;;;;;;5074515;28;20032;-64
2024/01/18 05:17:03;;;;;;;92.83;35.17;;;;;;;;;;5076791;28;20085;-64
2024/01/18 05:19:29;;;;;;;82.37;33.13;;;;;;;;;;5070134;28;20039;-64
2024/01/18 05:21:54;;;;;;;88.90;33.97;;;;;;;;;;5070915;28;20255;-64
2024/01/18 05:24:20;;;;;;;90.60;35.23;;;;;;;;;;5073795;28;20365;-63
2024/01/18 05:26:45;;;;;;;90.50;34.70;;;;;;;;;;5071170;28;20502;-64
2024/01/18 05:29:10;;;;;;;87.80;33.23;;;;;;;;;;5075244;28;20036;-65
2024/01/18 05:31:35;;;;;;;91.43;36.37;;;;;;;;;;5072460;28;20030;-64
2024/01/18 05:34:01;;;;;;;100.80;35.10;;;;;;;;;;5072571;28;20040;-64
2024/01/18 05:36:26;;;;;;;94.30;35.23;;;;;;;;;;5072947;28;20392;-63
2024/01/18 05:38:51;;;;;;;90.87;35.40;;;;;;;;;;5071336;28;20105;-64
2024/01/18 05:41:16;;;;;;;98.33;36.80;;;;;;;;;;5073517;28;20032;-65
2024/01/18 05:43:42;;;;;;;98.63;35.43;;;;;;;;;;5072868;28;20503;-64
2024/01/18 05:46:08;;;;;;;93.60;36.33;;;;;;;;;;5072279;28;20390;-64
2024/01/18 05:48:33;;;;;;;97.07;35.53;;;;;;;;;;5071509;28;20032;-64
2024/01/18 05:50:58;;;;;;;104.23;35.87;;;;;;;;;;5077331;28;20277;-69
2024/01/18 05:53:24;;;;;;;93.60;34.70;;;;;;;;;;5074075;28;20033;-69
2024/01/18 05:55:49;;;;;;;98.97;36.40;;;;;;;;;;5070420;28;20029;-69
2024/01/18 05:58:14;;;;;;;93.07;35.60;;;;;;;;;;5067564;28;20021;-69
2024/01/18 06:00:39;;;;;;;101.70;36.40;;;;;;;;;;5062872;28;20042;-69
2024/01/18 06:03:05;;;;;;;91.67;33.60;;;;;;;;;;5074789;28;20049;-69
2024/01/18 06:05:30;;;;;;;94.10;34.90;;;;;;;;;;5075821;28;20023;-69
2024/01/18 06:07:56;;;;;;;98.93;35.40;;;;;;;;;;5066803;28;20024;-69
2024/01/18 06:10:21;;;;;;;90.93;36.23;;;;;;;;;;5070728;28;20754;-69
2024/01/18 06:12:46;;;;;;;86.53;32.40;;;;;;;;;;5073966;28;20326;-69
2024/01/18 06:15:12;;;;;;;99.73;36.00;;;;;;;;;;5073716;28;20025;-69
2024/01/18 06:17:37;;;;;;;95.70;35.03;;;;;;;;;;5074811;28;20354;-69
2024/01/18 06:20:02;;;;;;;96.90;36.10;;;;;;;;;;5071670;28;20017;-69
2024/01/18 06:22:28;;;;;;;83.87;32.40;;;;;;;;;;5082197;28;20564;-69
2024/01/18 06:24:54;;;;;;;99.90;35.93;;;;;;;;;;5074164;28;20027;-69
2024/01/18 06:27:19;;;;;;;93.77;35.47;;;;;;;;;;5079983;28;20024;-69
2024/01/18 06:29:44;;;;;;;94.37;34.97;;;;;;;;;;5076663;28;20826;-69
2024/01/18 06:32:10;;;;;;;85.60;33.37;;;;;;;;;;5083984;28;20024;-69
2024/01/18 06:34:35;;;;;;;101.23;36.97;;;;;;;;;;5081264;28;20079;-69
2024/01/18 06:37:00;;;;;;;93.63;35.43;;;;;;;;;;5074763;28;20029;-69
2024/01/18 06:39:25;;;;;;;99.93;35.23;;;;;;;;;;5080233;28;20037;-70
2024/01/18 06:41:51;;;;;;;93.03;34.27;;;;;;;;;;5080583;28;20020;-68
2024/01/18 06:44:16;;;;;;;100.60;35.57;;;;;;;;;;5077649;28;20103;-69
2024/01/18 06:46:41;;;;;;;94.97;34.63;;;;;;;;;;5069524;28;20033;-69
2024/01/18 06:49:07;;;;;;;98.33;34.30;;;;;;;;;;5081614;28;20020;-69
2024/01/18 06:51:32;;;;;;;102.10;36.33;;;;;;;;;;5078290;28;20021;-69
2024/01/18 06:53:58;;;;;;;104.77;35.93;;;;;;;;;;5071284;28;20024;-69
2024/01/18 06:56:23;;;;;;;99.73;34.37;;;;;;;;;;5071156;28;20023;-69
2024/01/18 06:58:49;;;;;;;103.80;35.77;;;;;;;;;;5074497;28;20243;-69
2024/01/18 07:01:14;;;;;;;92.50;35.47;;;;;;;;;;5080493;28;20102;-64
2024/01/18 07:03:41;;;;;;;99.63;36.00;;;;;;;;;;5076850;28;20523;-64
2024/01/18 07:06:06;;;;;;;92.57;33.57;;;;;;;;;;5058062;28;20017;-64
2024/01/18 07:08:33;;;;;;;107.03;37.00;;;;;;;;;;5060415;28;20247;-64
2024/01/18 07:10:58;;;;;;;94.33;33.97;;;;;;;;;;5075653;28;20542;-64
2024/01/18 07:13:26;;;;;;;101.03;36.10;;;;;;;;;;5076703;28;20309;-64
2024/01/18 07:15:51;;;;;;;94.77;35.87;;;;;;;;;;5075429;28;20031;-64
2024/01/18 07:18:17;;;;;;;99.40;36.30;;;;;;;;;;5070115;28;20255;-64
2024/01/18 07:20:42;;;;;;;92.63;33.40;;;;;;;;;;5078071;28;20028;-64
2024/01/18 07:23:08;;;;;;;102.00;35.53;;;;;;;;;;5077779;28;20028;-64
2024/01/18 07:25:33;;;;;;;94.80;34.87;;;;;;;;;;5075857;28;20012;-64
2024/01/18 07:27:58;;;;;;;96.97;34.90;;;;;;;;;;5074515;28;20058;-64
2024/01/18 07:30:23;;;;;;;102.57;36.30;;;;;;;;;;5077071;28;20584;-64
2024/01/18 07:32:49;;;;;;;91.50;33.97;;;;;;;;;;5078433;28;20461;-65
2024/01/18 07:35:15;;;;;;;107.60;36.63;;;;;;;;;;5074109;28;20029;-64
2024/01/18 07:37:40;;;;;;;102.27;35.50;;;;;;;;;;5073365;28;20017;-65
2024/01/18 07:40:06;;;;;;;104.10;35.03;;;;;;;;;;5078632;28;20085;-66
2024/01/18 07:42:31;;;;;;;113.63;37.77;;;;;;;;;;5077441;28;20027;-64
2024/01/18 07:44:57;;;;;;;109.97;37.73;;;;;;;;;;5067684;28;20020;-64
2024/01/18 07:47:22;;;;;;;117.50;39.63;;;;;;;;;;5077432;28;20028;-64
2024/01/18 07:49:48;;;;;;;108.17;36.67;;;;;;;;;;5076437;28;20023;-65
2024/01/18 07:52:13;;;;;;;103.40;36.60;;;;;;;;;;5076699;28;20032;-65
2024/01/18 07:54:38;;;;;;;104.13;36.43;;;;;;;;;;5067046;28;20040;-64
2024/01/18 07:57:04;;;;;;;105.07;35.80;;;;;;;;;;5075743;28;20027;-65
2024/01/18 07:59:30;;;;;;;111.87;38.50;;;;;;;;;;5076130;28;20408;-64
2024/01/18 08:01:55;;;;;;;96.63;36.70;;;;;;;;;;5072028;28;20048;-64
2024/01/18 08:04:20;;;;;;;94.23;33.47;;;;;;;;;;5073594;28;20032;-64
2024/01/18 08:06:45;;;;;;;99.83;35.83;;;;;;;;;;5070814;28;20034;-64
2024/01/18 08:09:11;;;;;;;91.63;34.73;;;;;;;;;;5077286;28;20024;-65
2024/01/18 08:11:36;;;;;;;91.23;32.83;;;;;;;;;;5074616;28;20376;-66
2024/01/18 08:14:02;;;;;;;99.10;36.50;;;;;;;;;;5071725;28;20040;-64
2024/01/18 08:16:27;;;;;;;93.83;36.73;;;;;;;;;;5072613;28;20416;-64
2024/01/18 08:18:52;;;;;;;95.63;34.17;;;;;;;;;;5072271;28;20034;-65
2024/01/18 08:21:17;;;;;;;93.60;36.33;;;;;;;;;;5071138;28;20052;-64
2024/01/18 08:23:43;;;;;;;83.33;33.07;;;;;;;;;;5071416;28;20072;-64
2024/01/18 08:26:09;;;;;;;76.27;32.33;;;;;;;;;;5069338;28;20032;-66
2024/01/18 08:28:34;;;;;;;71.33;30.37;;;;;;;;;;5074814;28;20107;-66
2024/01/18 08:31:00;;;;;;;60.87;27.93;;;;;;;;;;5076990;28;20116;-65
2024/01/18 08:33:25;;;;;;;52.60;24.87;;;;;;;;;;5076669;28;20103;-65
2024/01/18 08:35:50;;;;;;;54.53;24.57;;;;;;;;;;5069032;28;20039;-65
2024/01/18 08:38:15;;;;;;;48.77;24.40;;;;;;;;;;5074314;28;20049;-65
2024/01/18 08:40:41;;;;;;;43.57;22.03;;;;;;;;;;5070334;28;20024;-64
2024/01/18 08:43:06;;;;;;;38.83;20.10;;;;;;;;;;5078124;28;20487;-65
2024/01/18 08:45:31;;;;;;;46.67;20.83;;;;;;;;;;5072695;28;20028;-64
2024/01/18 08:47:57;;;;;;;34.63;18.57;;;;;;;;;;5073514;28;20032;-65
2024/01/18 08:50:23;;;;;;;39.90;17.97;;;;;;;;;;5075535;28;20467;-65
2024/01/18 08:52:51;;;;;;;31.97;16.40;;;;;;;;;;5069848;28;20389;-65
2024/01/18 08:55:16;;;;;;;31.10;15.43;;;;;;;;;;5076845;28;20165;-65
2024/01/18 08:57:41;;;;;;;25.63;14.27;;;;;;;;;;5076505;28;20141;-66
2024/01/18 09:00:07;;;;;;;24.23;14.07;;;;;;;;;;5077967;28;20035;-65
2024/01/18 09:02:32;;;;;;;24.60;13.07;;;;;;;;;;5061608;28;20056;-65
2024/01/18 09:04:58;;;;;;;18.97;11.57;;;;;;;;;;5074143;28;20140;-65
2024/01/18 09:07:24;;;;;;;21.60;12.20;;;;;;;;;;5079251;28;20105;-65
2024/01/18 09:09:49;;;;;;;24.70;12.47;;;;;;;;;;5075693;28;20028;-64
2024/01/18 09:12:15;;;;;;;28.43;13.33;;;;;;;;;;5074396;28;20028;-65
2024/01/18 09:14:40;;;;;;;25.17;13.77;;;;;;;;;;5067844;28;20111;-65
2024/01/18 09:17:06;;;;;;;26.43;13.80;;;;;;;;;;5074427;28;20124;-65
2024/01/18 09:19:31;;;;;;;26.73;14.53;;;;;;;;;;5076669;28;20020;-65
2024/01/18 09:21:57;;;;;;;25.00;13.63;;;;;;;;;;5069427;28;20021;-66
2024/01/18 09:24:22;;;;;;;24.87;13.63;;;;;;;;;;5070465;28;20119;-65
2024/01/18 09:26:47;;;;;;;24.83;12.63;;;;;;;;;;5065441;28;20020;-65
2024/01/18 09:29:13;;;;;;;25.60;13.83;;;;;;;;;;5075214;28;20024;-65
2024/01/18 09:31:38;;;;;;;28.33;15.13;;;;;;;;;;5069389;28;20040;-65
2024/01/18 09:34:03;;;;;;;29.03;14.17;;;;;;;;;;5069141;28;20070;-65
2024/01/18 09:36:29;;;;;;;29.27;14.67;;;;;;;;;;5069185;28;20025;-65
2024/01/18 09:38:54;;;;;;;31.37;17.30;;;;;;;;;;5080214;28;20051;-65
2024/01/18 09:41:19;;;;;;;29.77;15.77;;;;;;;;;;5074270;28;20107;-65
2024/01/18 09:43:45;;;;;;;35.23;17.07;;;;;;;;;;5072159;28;20020;-65
2024/01/18 09:46:11;;;;;;;38.07;15.57;;;;;;;;;;5072117;28;20028;-65
2024/01/18 09:48:37;;;;;;;29.43;15.27;;;;;;;;;;5078838;28;20033;-65
2024/01/18 09:51:04;;;;;;;28.37;15.50;;;;;;;;;;5078526;28;20036;-64
2024/01/18 09:53:30;;;;;;;33.00;16.13;;;;;;;;;;5079567;28;20020;-65
2024/01/18 09:55:59;;;;;;;35.83;15.93;;;;;;;;;;5073990;28;20089;-65
2024/01/18 09:58:24;;;;;;;32.23;15.70;;;;;;;;;;5072705;28;20028;-65
2024/01/18 10:00:59;;;;;;;32.80;15.67;;;;;;;;;;5079770;28;20397;-65
2024/01/18 10:03:24;;;;;;;32.80;16.53;;;;;;;;;;5082908;28;20048;-64
2024/01/18 10:05:50;;;;;;;28.77;15.60;;;;;;;;;;5074154;28;20021;-66
2024/01/18 10:08:15;;;;;;;33.53;14.60;;;;;;;;;;5080787;28;20033;-65
2024/01/18 10:10:42;;;;;;;29.33;14.13;;;;;;;;;;5074566;28;20090;-65
2024/01/18 10:13:10;;;;;;;25.90;13.90;;;;;;;;;;5077176;28;20100;-64
2024/01/18 10:15:35;;;;;;;32.63;14.87;;;;;;;;;;5078437;28;20024;-64
2024/01/18 10:18:03;;;;;;;28.17;13.60;;;;;;;;;;5078096;28;20079;-65
2024/01/18 10:20:28;;;;;;;28.03;13.50;;;;;;;;;;5072693;28;20031;-65
2024/01/18 10:22:54;;;;;;;26.83;13.90;;;;;;;;;;5071393;28;20517;-65
2024/01/18 10:25:21;;;;;;;24.63;12.03;;;;;;;;;;5080550;28;20503;-65
2024/01/18 10:27:46;;;;;;;20.90;10.70;;;;;;;;;;5076607;28;21417;-65
2024/01/18 10:30:12;;;;;;;21.90;11.47;;;;;;;;;;5073557;28;20028;-65
2024/01/18 10:32:39;;;;;;;23.00;11.13;;;;;;;;;;5071431;28;20021;-65
2024/01/18 10:35:05;;;;;;;19.33;10.87;;;;;;;;;;5070392;28;20027;-64
2024/01/18 10:37:30;;;;;;;20.53;9.40;;;;;;;;;;5077882;28;20096;-65
2024/01/18 10:39:55;;;;;;;16.50;8.60;;;;;;;;;;5075233;28;20378;-65
2024/01/18 10:42:21;;;;;;;16.60;8.40;;;;;;;;;;5070210;28;20032;-65
2024/01/18 10:44:49;;;;;;;15.63;7.50;;;;;;;;;;5071482;28;20024;-64
2024/01/18 10:47:14;;;;;;;15.40;7.80;;;;;;;;;;5079245;28;20469;-65
2024/01/18 10:49:43;;;;;;;16.90;7.70;;;;;;;;;;5078572;28;20089;-65
2024/01/18 10:52:09;;;;;;;11.83;6.53;;;;;;;;;;5077925;28;20032;-65
2024/01/18 10:54:35;;;;;;;16.60;7.27;;;;;;;;;;5069652;28;20031;-65
2024/01/18 10:57:00;;;;;;;12.63;6.40;;;;;;;;;;5076859;28;20028;-66
2024/01/18 10:59:29;;;;;;;14.87;6.80;;;;;;;;;;5080655;28;20040;-65
2024/01/18 11:01:55;;;;;;;14.00;5.77;;;;;;;;;;5074751;28;20049;-65
2024/01/18 11:04:20;;;;;;;16.93;6.43;;;;;;;;;;5070819;28;20055;-65
2024/01/18 11:06:46;;;;;;;12.17;6.10;;;;;;;;;;5081099;28;20017;-65
2024/01/18 11:09:12;;;;;;;17.30;6.30;;;;;;;;;;5073846;28;20028;-65
2024/01/18 11:11:39;;;;;;;12.93;6.57;;;;;;;;;;5077738;28;20026;-66
2024/01/18 11:14:04;;;;;;;13.20;5.60;;;;;;;;;;5075587;28;20024;-65
2024/01/18 11:16:30;;;;;;;9.73;5.10;;;;;;;;;;5077709;28;20027;-65
2024/01/18 11:19:00;;;;;;;11.13;5.17;;;;;;;;;;5074710;28;20032;-65
2024/01/18 11:21:37;;;;;;;9.53;5.23;;;;;;;;;;5081882;28;20443;-65
2024/01/18 11:24:05;;;;;;;10.73;5.30;;;;;;;;;;5079338;28;20477;-64
2024/01/18 11:26:31;;;;;;;17.53;5.40;;;;;;;;;;5081040;28;20385;-65
2024/01/18 11:29:15;;;;;;;12.50;5.33;;;;;;;;;;5071807;28;20016;-65
2024/01/18 11:31:44;;;;;;;15.93;4.47;;;;;;;;;;5070071;28;20095;-65
2024/01/18 11:34:15;;;;;;;10.87;4.73;;;;;;;;;;5081968;28;20032;-65
2024/01/18 11:36:46;;;;;;;12.27;4.70;;;;;;;;;;5076710;28;20025;-66
2024/01/18 11:39:11;;;;;;;8.20;4.10;;;;;;;;;;5071433;28;20150;-65
2024/01/18 11:41:36;;;;;;;10.93;4.53;;;;;;;;;;5074044;28;20020;-68
2024/01/18 11:44:07;;;;;;;8.23;4.00;;;;;;;;;;5069467;28;20032;-68
2024/01/18 11:46:37;;;;;;;8.77;3.10;;;;;;;;;;5074945;28;20083;-68
2024/01/18 11:49:03;;;;;;;11.93;3.80;;;;;;;;;;5071306;28;20026;-68
2024/01/18 11:51:28;;;;;;;10.63;3.50;;;;;;;;;;5072463;28;20598;-68
2024/01/18 11:53:54;;;;;;;8.83;3.07;;;;;;;;;;5075161;28;20545;-68
2024/01/18 11:56:22;;;;;;;8.70;3.20;;;;;;;;;;5078307;28;20533;-68
2024/01/18 11:58:48;;;;;;;12.43;3.60;;;;;;;;;;5069633;28;20024;-68
2024/01/18 12:01:13;;;;;;;7.30;3.40;;;;;;;;;;5074402;28;20078;-68
2024/01/18 12:03:39;;;;;;;10.47;3.50;;;;;;;;;;5075148;28;20120;-68
2024/01/18 12:06:04;;;;;;;8.57;3.37;;;;;;;;;;5080356;28;20021;-68
2024/01/18 12:08:29;;;;;;;6.73;3.10;;;;;;;;;;5081124;28;20036;-68
2024/01/18 12:10:55;;;;;;;8.80;3.50;;;;;;;;;;5072228;28;20024;-68
2024/01/18 12:13:20;;;;;;;12.03;3.87;;;;;;;;;;5068035;28;20396;-68
2024/01/18 12:15:46;;;;;;;8.07;3.67;;;;;;;;;;5075808;28;20070;-68
2024/01/18 12:18:11;;;;;;;9.27;3.30;;;;;;;;;;5076164;28;20473;-68
2024/01/18 12:20:36;;;;;;;9.37;3.97;;;;;;;;;;5078343;28;20059;-67
2024/01/18 12:23:02;;;;;;;8.47;3.63;;;;;;;;;;5072546;28;20526;-68
2024/01/18 12:25:28;;;;;;;7.60;3.10;;;;;;;;;;5074321;28;20029;-68
2024/01/18 12:27:53;;;;;;;8.00;2.63;;;;;;;;;;5076187;28;20605;-68
2024/01/18 12:30:19;;;;;;;9.10;2.83;;;;;;;;;;5068687;28;20040;-69
2024/01/18 12:32:44;;;;;;;7.23;2.50;;;;;;;;;;5078699;28;20076;-68
2024/01/18 12:35:10;;;;;;;4.93;2.10;;;;;;;;;;5079360;28;20517;-68
2024/01/18 12:37:37;;;;;;;7.67;2.00;;;;;;;;;;5074977;28;20028;-68
2024/01/18 12:40:04;;;;;;;6.93;2.30;;;;;;;;;;5069350;28;20025;-67
2024/01/18 12:42:32;;;;;;;5.83;2.13;;;;;;;;;;5078349;28;20465;-68
2024/01/18 12:44:57;;;;;;;4.93;1.80;;;;;;;;;;5076756;28;20637;-68
2024/01/18 12:47:23;;;;;;;4.13;1.90;;;;;;;;;;5071687;28;20095;-68
2024/01/18 12:49:52;;;;;;;4.10;1.90;;;;;;;;;;5069979;28;20021;-68
2024/01/18 12:52:17;;;;;;;4.33;2.20;;;;;;;;;;5066810;28;20028;-68
2024/01/18 12:54:43;;;;;;;4.13;1.70;;;;;;;;;;5073291;28;20029;-68
2024/01/18 12:57:09;;;;;;;6.70;2.07;;;;;;;;;;5066555;28;20020;-68
2024/01/18 12:59:34;;;;;;;4.83;2.00;;;;;;;;;;5063056;28;20016;-68
2024/01/18 13:01:59;;;;;;;3.60;1.90;;;;;;;;;;5063140;28;20048;-68
2024/01/18 13:04:26;;;;;;;3.93;1.40;;;;;;;;;;5077520;28;20017;-68
2024/01/18 13:06:53;;;;;;;7.70;1.50;;;;;;;;;;5074633;28;20460;-68
2024/01/18 13:09:22;;;;;;;7.17;2.00;;;;;;;;;;5071291;28;20020;-68
2024/01/18 13:11:48;;;;;;;7.50;2.13;;;;;;;;;;5066332;28;20413;-68
2024/01/18 13:14:15;;;;;;;4.67;1.40;;;;;;;;;;5077838;28;20024;-68
2024/01/18 13:16:41;;;;;;;5.83;1.40;;;;;;;;;;5077365;28;20464;-68
2024/01/18 13:19:08;;;;;;;6.07;2.07;;;;;;;;;;5075371;28;20019;-68
2024/01/18 13:21:34;;;;;;;4.80;2.10;;;;;;;;;;5072797;28;20056;-68
2024/01/18 13:23:59;;;;;;;3.93;1.57;;;;;;;;;;5076269;28;20055;-68
2024/01/18 13:26:25;;;;;;;8.00;1.60;;;;;;;;;;5074384;28;20469;-68
2024/01/18 13:28:50;;;;;;;5.13;1.50;;;;;;;;;;5078900;28;20387;-68
2024/01/18 13:31:16;;;;;;;7.53;1.47;;;;;;;;;;5070600;28;20018;-68
2024/01/18 13:33:41;;;;;;;4.03;1.50;;;;;;;;;;5075729;28;20028;-68
2024/01/18 13:36:07;;;;;;;5.30;1.20;;;;;;;;;;5073801;28;20024;-68
2024/01/18 13:38:33;;;;;;;3.53;1.40;;;;;;;;;;5075622;28;20031;-68
2024/01/18 13:40:59;;;;;;;4.87;1.30;;;;;;;;;;5073596;28;20511;-68
2024/01/18 13:43:24;;;;;;;4.07;1.30;;;;;;;;;;5078471;28;20048;-68
2024/01/18 13:45:50;;;;;;;4.00;1.10;;;;;;;;;;5073115;28;20099;-68
2024/01/18 13:48:15;;;;;;;4.37;1.20;;;;;;;;;;5069095;28;20021;-68
2024/01/18 13:50:40;;;;;;;2.87;1.20;;;;;;;;;;5074960;28;20024;-68
2024/01/18 13:53:06;;;;;;;4.50;1.27;;;;;;;;;;5074231;28;20021;-68
2024/01/18 13:55:32;;;;;;;4.03;1.37;;;;;;;;;;5070252;28;20032;-68
2024/01/18 13:57:57;;;;;;;3.63;1.17;;;;;;;;;;5069490;28;20028;-68
2024/01/18 14:00:22;;;;;;;3.57;1.20;;;;;;;;;;5074262;28;20103;-68
2024/01/18 14:02:48;;;;;;;2.47;1.03;;;;;;;;;;5076319;28;20052;-66
2024/01/18 14:05:13;;;;;;;5.03;1.77;;;;;;;;;;5074896;28;20028;-65
2024/01/18 14:07:38;;;;;;;2.70;1.10;;;;;;;;;;5070155;28;20388;-66
2024/01/18 14:10:04;;;;;;;3.50;1.30;;;;;;;;;;5066264;28;20025;-65
2024/01/18 14:12:29;;;;;;;3.37;1.30;;;;;;;;;;5076594;28;20376;-65